sensor_id;sensor_type;location;lat;lon;timestamp;P1;durP1;ratioP1;P2;durP2;ratioP2
7316;SDS011;3699;51.462;6.696;2023-12-20T00:00:21;21.50;;;11.13;;
7316;SDS011;3699;51.462;6.696;2023-12-20T00:02:48;23.43;;;11.90;;
7316;SDS011;3699;51.462;6.696;2023-12-20T00:05:15;24.97;;;12.03;;
7316;SDS011;3699;51.462;6.696;2023-12-20T00:07:42;23.63;;;11.43;;
7316;SDS011;3699;51.462;6.696;2023-12-20T00:10:09;22.00;;;11.90;;
7316;SDS011;3699;51.462;6.696;2023-12-20T00:12:39;23.83;;;12.30;;
7316;SDS011;3699;51.462;6.696;2023-12-20T00:15:06;23.10;;;10.40;;
7316;SDS011;3699;51.462;6.696;2023-12-20T00:17:33;20.07;;;10.33;;
7316;SDS011;3699;51.462;6.696;2023-12-20T00:20:00;23.67;;;10.30;;
7316;SDS011;3699;51.462;6.696;2023-12-20T00:22:27;21.93;;;10.13;;
7316;SDS011;3699;51.462;6.696;2023-12-20T00:24:54;19.67;;;9.90;;
7316;SDS011;3699;51.462;6.696;2023-12-20T00:27:21;17.93;;;9.77;;
7316;SDS011;3699;51.462;6.696;2023-12-20T00:29:49;21.50;;;8.73;;
7316;SDS011;3699;51.462;6.696;2023-12-20T00:32:16;22.33;;;9.67;;
7316;SDS011;3699;51.462;6.696;2023-12-20T00:34:43;23.03;;;8.97;;
7316;SDS011;3699;51.462;6.696;2023-12-20T00:37:10;23.10;;;9.67;;
7316;SDS011;3699;51.462;6.696;2023-12-20T00:39:36;28.23;;;9.50;;
7316;SDS011;3699;51.462;6.696;2023-12-20T00:42:03;23.00;;;8.60;;
7316;SDS011;3699;51.462;6.696;2023-12-20T00:44:30;16.47;;;8.80;;
7316;SDS011;3699;51.462;6.696;2023-12-20T00:46:58;18.93;;;9.70;;
7316;SDS011;3699;51.462;6.696;2023-12-20T00:49:26;22.17;;;9.43;;
7316;SDS011;3699;51.462;6.696;2023-12-20T00:51:52;18.43;;;10.37;;
7316;SDS011;3699;51.462;6.696;2023-12-20T00:54:19;23.00;;;11.23;;
7316;SDS011;3699;51.462;6.696;2023-12-20T00:56:46;24.97;;;10.23;;
7316;SDS011;3699;51.462;6.696;2023-12-20T00:59:13;25.43;;;10.53;;
7316;SDS011;3699;51.462;6.696;2023-12-20T01:01:39;27.00;;;11.30;;
7316;SDS011;3699;51.462;6.696;2023-12-20T01:04:08;23.43;;;11.20;;
7316;SDS011;3699;51.462;6.696;2023-12-20T01:06:35;31.13;;;13.30;;
7316;SDS011;3699;51.462;6.696;2023-12-20T01:09:02;36.20;;;12.97;;
7316;SDS011;3699;51.462;6.696;2023-12-20T01:11:29;27.87;;;12.73;;
7316;SDS011;3699;51.462;6.696;2023-12-20T01:13:55;20.90;;;10.50;;
7316;SDS011;3699;51.462;6.696;2023-12-20T01:16:22;21.23;;;11.07;;
7316;SDS011;3699;51.462;6.696;2023-12-20T01:18:49;28.43;;;12.03;;
7316;SDS011;3699;51.462;6.696;2023-12-20T01:21:17;25.33;;;11.80;;
7316;SDS011;3699;51.462;6.696;2023-12-20T01:23:43;23.77;;;11.13;;
7316;SDS011;3699;51.462;6.696;2023-12-20T01:26:10;24.73;;;10.83;;
7316;SDS011;3699;51.462;6.696;2023-12-20T01:28:37;19.63;;;10.13;;
7316;SDS011;3699;51.462;6.696;2023-12-20T01:31:04;28.47;;;10.23;;
7316;SDS011;3699;51.462;6.696;2023-12-20T01:33:31;24.43;;;9.83;;
7316;SDS011;3699;51.462;6.696;2023-12-20T01:35:57;20.90;;;9.73;;
7316;SDS011;3699;51.462;6.696;2023-12-20T01:38:25;22.50;;;9.70;;
7316;SDS011;3699;51.462;6.696;2023-12-20T01:40:52;22.97;;;10.20;;
7316;SDS011;3699;51.462;6.696;2023-12-20T01:43:19;23.97;;;9.63;;
7316;SDS011;3699;51.462;6.696;2023-12-20T01:45:46;22.90;;;9.30;;
7316;SDS011;3699;51.462;6.696;2023-12-20T01:48:13;23.23;;;10.57;;
7316;SDS011;3699;51.462;6.696;2023-12-20T01:50:42;21.07;;;8.87;;
7316;SDS011;3699;51.462;6.696;2023-12-20T01:53:10;19.73;;;9.20;;
7316;SDS011;3699;51.462;6.696;2023-12-20T01:55:40;20.03;;;9.50;;
7316;SDS011;3699;51.462;6.696;2023-12-20T01:58:07;20.30;;;9.30;;
7316;SDS011;3699;51.462;6.696;2023-12-20T02:00:36;22.50;;;9.37;;
7316;SDS011;3699;51.462;6.696;2023-12-20T02:03:03;22.73;;;10.03;;
7316;SDS011;3699;51.462;6.696;2023-12-20T02:05:31;27.33;;;9.87;;
7316;SDS011;3699;51.462;6.696;2023-12-20T02:07:58;26.50;;;9.50;;
7316;SDS011;3699;51.462;6.696;2023-12-20T02:10:25;28.10;;;9.73;;
7316;SDS011;3699;51.462;6.696;2023-12-20T02:12:56;24.60;;;9.43;;
7316;SDS011;3699;51.462;6.696;2023-12-20T02:15:23;19.47;;;10.33;;
7316;SDS011;3699;51.462;6.696;2023-12-20T02:17:50;21.90;;;9.67;;
7316;SDS011;3699;51.462;6.696;2023-12-20T02:20:17;19.30;;;9.30;;
7316;SDS011;3699;51.462;6.696;2023-12-20T02:22:45;18.03;;;9.97;;
7316;SDS011;3699;51.462;6.696;2023-12-20T02:25:12;23.57;;;9.97;;
7316;SDS011;3699;51.462;6.696;2023-12-20T02:27:39;24.67;;;9.50;;
7316;SDS011;3699;51.462;6.696;2023-12-20T02:30:06;22.73;;;10.27;;
7316;SDS011;3699;51.462;6.696;2023-12-20T02:32:34;22.10;;;10.20;;
7316;SDS011;3699;51.462;6.696;2023-12-20T02:35:00;21.63;;;9.43;;
7316;SDS011;3699;51.462;6.696;2023-12-20T02:37:26;21.23;;;9.43;;
7316;SDS011;3699;51.462;6.696;2023-12-20T02:39:54;22.83;;;8.70;;
7316;SDS011;3699;51.462;6.696;2023-12-20T02:42:21;22.03;;;10.90;;
7316;SDS011;3699;51.462;6.696;2023-12-20T02:44:48;19.70;;;8.17;;
7316;SDS011;3699;51.462;6.696;2023-12-20T02:47:15;22.70;;;7.80;;
7316;SDS011;3699;51.462;6.696;2023-12-20T02:49:41;16.63;;;7.37;;
7316;SDS011;3699;51.462;6.696;2023-12-20T02:52:08;19.20;;;7.47;;
7316;SDS011;3699;51.462;6.696;2023-12-20T02:54:35;20.37;;;7.20;;
7316;SDS011;3699;51.462;6.696;2023-12-20T02:57:03;19.87;;;5.80;;
7316;SDS011;3699;51.462;6.696;2023-12-20T02:59:30;10.40;;;5.03;;
7316;SDS011;3699;51.462;6.696;2023-12-20T03:01:57;14.80;;;5.93;;
7316;SDS011;3699;51.462;6.696;2023-12-20T03:04:23;20.03;;;7.67;;
7316;SDS011;3699;51.462;6.696;2023-12-20T03:06:50;27.20;;;7.77;;
7316;SDS011;3699;51.462;6.696;2023-12-20T03:09:17;24.90;;;6.10;;
7316;SDS011;3699;51.462;6.696;2023-12-20T03:11:44;16.43;;;5.47;;
7316;SDS011;3699;51.462;6.696;2023-12-20T03:14:12;12.57;;;5.10;;
7316;SDS011;3699;51.462;6.696;2023-12-20T03:16:38;17.47;;;6.17;;
7316;SDS011;3699;51.462;6.696;2023-12-20T03:19:05;17.97;;;5.03;;
7316;SDS011;3699;51.462;6.696;2023-12-20T03:21:32;15.60;;;5.00;;
7316;SDS011;3699;51.462;6.696;2023-12-20T03:23:58;18.40;;;5.33;;
7316;SDS011;3699;51.462;6.696;2023-12-20T03:26:25;13.63;;;5.07;;
7316;SDS011;3699;51.462;6.696;2023-12-20T03:28:52;22.23;;;5.67;;
7316;SDS011;3699;51.462;6.696;2023-12-20T03:31:20;13.57;;;4.97;;
7316;SDS011;3699;51.462;6.696;2023-12-20T03:33:47;19.30;;;4.77;;
7316;SDS011;3699;51.462;6.696;2023-12-20T03:36:13;15.40;;;4.57;;
7316;SDS011;3699;51.462;6.696;2023-12-20T03:38:40;13.97;;;4.87;;
7316;SDS011;3699;51.462;6.696;2023-12-20T03:41:07;20.47;;;4.37;;
7316;SDS011;3699;51.462;6.696;2023-12-20T03:43:33;18.77;;;4.90;;
7316;SDS011;3699;51.462;6.696;2023-12-20T03:46:00;13.27;;;5.20;;
7316;SDS011;3699;51.462;6.696;2023-12-20T03:48:30;21.27;;;5.00;;
7316;SDS011;3699;51.462;6.696;2023-12-20T03:50:56;15.33;;;4.67;;
7316;SDS011;3699;51.462;6.696;2023-12-20T03:53:23;17.87;;;4.00;;
7316;SDS011;3699;51.462;6.696;2023-12-20T03:55:50;23.63;;;6.80;;
7316;SDS011;3699;51.462;6.696;2023-12-20T03:58:17;17.50;;;4.27;;
7316;SDS011;3699;51.462;6.696;2023-12-20T04:00:43;15.60;;;4.60;;
7316;SDS011;3699;51.462;6.696;2023-12-20T04:03:10;11.07;;;4.17;;
7316;SDS011;3699;51.462;6.696;2023-12-20T04:05:39;12.60;;;4.90;;
7316;SDS011;3699;51.462;6.696;2023-12-20T04:08:06;15.97;;;4.80;;
7316;SDS011;3699;51.462;6.696;2023-12-20T04:10:34;12.83;;;4.43;;
7316;SDS011;3699;51.462;6.696;2023-12-20T04:13:02;13.77;;;4.53;;
7316;SDS011;3699;51.462;6.696;2023-12-20T04:15:29;18.83;;;5.00;;
7316;SDS011;3699;51.462;6.696;2023-12-20T04:17:56;14.90;;;5.37;;
7316;SDS011;3699;51.462;6.696;2023-12-20T04:20:22;16.37;;;5.03;;
7316;SDS011;3699;51.462;6.696;2023-12-20T04:22:50;19.43;;;6.00;;
7316;SDS011;3699;51.462;6.696;2023-12-20T04:25:17;15.27;;;4.93;;
7316;SDS011;3699;51.462;6.696;2023-12-20T04:27:44;26.57;;;6.80;;
7316;SDS011;3699;51.462;6.696;2023-12-20T04:30:11;22.70;;;4.70;;
7316;SDS011;3699;51.462;6.696;2023-12-20T04:32:38;19.67;;;6.07;;
7316;SDS011;3699;51.462;6.696;2023-12-20T04:35:05;18.00;;;5.10;;
7316;SDS011;3699;51.462;6.696;2023-12-20T04:37:33;17.30;;;5.57;;
7316;SDS011;3699;51.462;6.696;2023-12-20T04:40:01;22.10;;;6.10;;
7316;SDS011;3699;51.462;6.696;2023-12-20T04:42:30;20.03;;;6.20;;
7316;SDS011;3699;51.462;6.696;2023-12-20T04:44:57;28.40;;;6.43;;
7316;SDS011;3699;51.462;6.696;2023-12-20T04:47:23;18.17;;;5.17;;
7316;SDS011;3699;51.462;6.696;2023-12-20T04:49:50;23.40;;;6.37;;
7316;SDS011;3699;51.462;6.696;2023-12-20T04:52:17;26.77;;;6.10;;
7316;SDS011;3699;51.462;6.696;2023-12-20T04:54:44;24.50;;;5.90;;
7316;SDS011;3699;51.462;6.696;2023-12-20T04:57:12;18.03;;;5.80;;
7316;SDS011;3699;51.462;6.696;2023-12-20T04:59:39;20.97;;;6.03;;
7316;SDS011;3699;51.462;6.696;2023-12-20T05:02:07;21.20;;;5.77;;
7316;SDS011;3699;51.462;6.696;2023-12-20T05:04:34;17.93;;;6.37;;
7316;SDS011;3699;51.462;6.696;2023-12-20T05:07:01;19.43;;;6.10;;
7316;SDS011;3699;51.462;6.696;2023-12-20T05:09:29;17.87;;;6.10;;
7316;SDS011;3699;51.462;6.696;2023-12-20T05:11:56;17.07;;;6.67;;
7316;SDS011;3699;51.462;6.696;2023-12-20T05:14:24;20.90;;;6.67;;
7316;SDS011;3699;51.462;6.696;2023-12-20T05:16:51;14.53;;;6.87;;
7316;SDS011;3699;51.462;6.696;2023-12-20T05:19:18;23.47;;;7.30;;
7316;SDS011;3699;51.462;6.696;2023-12-20T05:21:45;18.57;;;7.00;;
7316;SDS011;3699;51.462;6.696;2023-12-20T05:24:11;26.87;;;7.43;;
7316;SDS011;3699;51.462;6.696;2023-12-20T05:26:38;23.93;;;8.00;;
7316;SDS011;3699;51.462;6.696;2023-12-20T05:29:05;24.80;;;8.73;;
7316;SDS011;3699;51.462;6.696;2023-12-20T05:31:33;24.70;;;8.17;;
7316;SDS011;3699;51.462;6.696;2023-12-20T05:34:00;31.53;;;7.30;;
7316;SDS011;3699;51.462;6.696;2023-12-20T05:36:26;22.17;;;7.23;;
7316;SDS011;3699;51.462;6.696;2023-12-20T05:38:53;23.77;;;7.50;;
7316;SDS011;3699;51.462;6.696;2023-12-20T05:41:20;23.13;;;6.83;;
7316;SDS011;3699;51.462;6.696;2023-12-20T05:43:47;18.37;;;6.33;;
7316;SDS011;3699;51.462;6.696;2023-12-20T05:46:14;17.73;;;7.47;;
7316;SDS011;3699;51.462;6.696;2023-12-20T05:48:42;26.73;;;7.57;;
7316;SDS011;3699;51.462;6.696;2023-12-20T05:51:11;22.90;;;7.63;;
7316;SDS011;3699;51.462;6.696;2023-12-20T05:53:37;18.07;;;6.37;;
7316;SDS011;3699;51.462;6.696;2023-12-20T05:56:04;23.57;;;6.70;;
7316;SDS011;3699;51.462;6.696;2023-12-20T05:58:31;21.07;;;6.70;;
7316;SDS011;3699;51.462;6.696;2023-12-20T06:00:58;26.80;;;9.63;;
7316;SDS011;3699;51.462;6.696;2023-12-20T06:03:25;24.47;;;6.90;;
7316;SDS011;3699;51.462;6.696;2023-12-20T06:05:53;20.30;;;6.50;;
7316;SDS011;3699;51.462;6.696;2023-12-20T06:08:20;25.93;;;7.27;;
7316;SDS011;3699;51.462;6.696;2023-12-20T06:10:46;26.23;;;7.57;;
7316;SDS011;3699;51.462;6.696;2023-12-20T06:13:13;17.60;;;6.33;;
7316;SDS011;3699;51.462;6.696;2023-12-20T06:15:40;20.47;;;7.60;;
7316;SDS011;3699;51.462;6.696;2023-12-20T06:18:07;18.43;;;6.77;;
7316;SDS011;3699;51.462;6.696;2023-12-20T06:20:35;16.80;;;7.10;;
7316;SDS011;3699;51.462;6.696;2023-12-20T06:23:03;17.80;;;7.50;;
7316;SDS011;3699;51.462;6.696;2023-12-20T06:25:30;25.40;;;7.10;;
7316;SDS011;3699;51.462;6.696;2023-12-20T06:27:57;19.23;;;6.57;;
7316;SDS011;3699;51.462;6.696;2023-12-20T06:30:23;19.33;;;7.10;;
7316;SDS011;3699;51.462;6.696;2023-12-20T06:32:52;26.07;;;7.17;;
7316;SDS011;3699;51.462;6.696;2023-12-20T06:35:19;20.07;;;6.90;;
7316;SDS011;3699;51.462;6.696;2023-12-20T06:37:46;27.13;;;7.80;;
7316;SDS011;3699;51.462;6.696;2023-12-20T06:40:14;23.50;;;8.87;;
7316;SDS011;3699;51.462;6.696;2023-12-20T06:42:41;27.83;;;6.67;;
7316;SDS011;3699;51.462;6.696;2023-12-20T06:45:08;17.93;;;7.70;;
7316;SDS011;3699;51.462;6.696;2023-12-20T06:47:35;25.23;;;7.93;;
7316;SDS011;3699;51.462;6.696;2023-12-20T06:50:02;24.20;;;7.77;;
7316;SDS011;3699;51.462;6.696;2023-12-20T06:52:29;23.70;;;7.60;;
7316;SDS011;3699;51.462;6.696;2023-12-20T06:54:56;24.17;;;8.00;;
7316;SDS011;3699;51.462;6.696;2023-12-20T06:57:24;30.77;;;8.20;;
7316;SDS011;3699;51.462;6.696;2023-12-20T06:59:51;20.93;;;6.73;;
7316;SDS011;3699;51.462;6.696;2023-12-20T07:02:18;27.80;;;6.27;;
7316;SDS011;3699;51.462;6.696;2023-12-20T07:04:46;19.67;;;6.83;;
7316;SDS011;3699;51.462;6.696;2023-12-20T07:07:12;20.30;;;8.00;;
7316;SDS011;3699;51.462;6.696;2023-12-20T07:09:39;27.07;;;6.73;;
7316;SDS011;3699;51.462;6.696;2023-12-20T07:12:07;28.80;;;6.67;;
7316;SDS011;3699;51.462;6.696;2023-12-20T07:14:36;16.10;;;6.10;;
7316;SDS011;3699;51.462;6.696;2023-12-20T07:17:02;25.40;;;7.60;;
7316;SDS011;3699;51.462;6.696;2023-12-20T07:19:29;20.77;;;7.37;;
7316;SDS011;3699;51.462;6.696;2023-12-20T07:21:57;17.07;;;6.37;;
7316;SDS011;3699;51.462;6.696;2023-12-20T07:24:23;19.20;;;6.77;;
7316;SDS011;3699;51.462;6.696;2023-12-20T07:26:50;26.93;;;8.13;;
7316;SDS011;3699;51.462;6.696;2023-12-20T07:29:17;24.00;;;7.53;;
7316;SDS011;3699;51.462;6.696;2023-12-20T07:31:45;23.67;;;6.60;;
7316;SDS011;3699;51.462;6.696;2023-12-20T07:34:11;24.13;;;7.23;;
7316;SDS011;3699;51.462;6.696;2023-12-20T07:36:38;28.97;;;6.67;;
7316;SDS011;3699;51.462;6.696;2023-12-20T07:39:05;36.50;;;10.83;;
7316;SDS011;3699;51.462;6.696;2023-12-20T07:41:32;23.83;;;6.73;;
7316;SDS011;3699;51.462;6.696;2023-12-20T07:43:59;24.60;;;6.97;;
7316;SDS011;3699;51.462;6.696;2023-12-20T07:46:26;17.10;;;7.73;;
7316;SDS011;3699;51.462;6.696;2023-12-20T07:48:54;19.90;;;6.87;;
7316;SDS011;3699;51.462;6.696;2023-12-20T07:51:20;23.17;;;7.13;;
7316;SDS011;3699;51.462;6.696;2023-12-20T07:53:47;31.63;;;9.17;;
7316;SDS011;3699;51.462;6.696;2023-12-20T07:56:14;18.37;;;6.97;;
7316;SDS011;3699;51.462;6.696;2023-12-20T07:58:41;17.07;;;7.20;;
7316;SDS011;3699;51.462;6.696;2023-12-20T08:01:08;20.17;;;6.70;;
7316;SDS011;3699;51.462;6.696;2023-12-20T08:03:35;12.17;;;6.63;;
7316;SDS011;3699;51.462;6.696;2023-12-20T08:06:04;20.90;;;6.60;;
7316;SDS011;3699;51.462;6.696;2023-12-20T08:08:30;27.63;;;7.40;;
7316;SDS011;3699;51.462;6.696;2023-12-20T08:10:57;23.20;;;7.73;;
7316;SDS011;3699;51.462;6.696;2023-12-20T08:13:25;16.13;;;7.27;;
7316;SDS011;3699;51.462;6.696;2023-12-20T08:15:52;25.53;;;7.77;;
7316;SDS011;3699;51.462;6.696;2023-12-20T08:18:19;26.90;;;7.30;;
7316;SDS011;3699;51.462;6.696;2023-12-20T08:20:46;26.97;;;9.00;;
7316;SDS011;3699;51.462;6.696;2023-12-20T08:23:14;22.33;;;7.30;;
7316;SDS011;3699;51.462;6.696;2023-12-20T08:25:41;17.17;;;7.00;;
7316;SDS011;3699;51.462;6.696;2023-12-20T08:28:08;16.83;;;7.37;;
7316;SDS011;3699;51.462;6.696;2023-12-20T08:30:35;23.23;;;7.23;;
7316;SDS011;3699;51.462;6.696;2023-12-20T08:33:01;14.37;;;6.20;;
7316;SDS011;3699;51.462;6.696;2023-12-20T08:35:29;15.87;;;5.87;;
7316;SDS011;3699;51.462;6.696;2023-12-20T08:37:55;18.93;;;5.73;;
7316;SDS011;3699;51.462;6.696;2023-12-20T08:40:23;16.70;;;5.60;;
7316;SDS011;3699;51.462;6.696;2023-12-20T08:42:50;27.60;;;7.60;;
7316;SDS011;3699;51.462;6.696;2023-12-20T08:45:17;19.13;;;5.50;;
7316;SDS011;3699;51.462;6.696;2023-12-20T08:47:44;17.27;;;6.00;;
7316;SDS011;3699;51.462;6.696;2023-12-20T08:50:11;16.80;;;5.17;;
7316;SDS011;3699;51.462;6.696;2023-12-20T08:52:38;18.40;;;5.47;;
7316;SDS011;3699;51.462;6.696;2023-12-20T08:55:05;20.50;;;5.23;;
7316;SDS011;3699;51.462;6.696;2023-12-20T08:57:34;17.77;;;4.53;;
7316;SDS011;3699;51.462;6.696;2023-12-20T09:00:00;17.10;;;4.80;;
7316;SDS011;3699;51.462;6.696;2023-12-20T09:02:28;14.20;;;4.43;;
7316;SDS011;3699;51.462;6.696;2023-12-20T09:04:55;24.07;;;5.93;;
7316;SDS011;3699;51.462;6.696;2023-12-20T09:07:22;15.80;;;4.97;;
7316;SDS011;3699;51.462;6.696;2023-12-20T09:09:49;19.70;;;5.80;;
7316;SDS011;3699;51.462;6.696;2023-12-20T09:12:17;19.97;;;5.83;;
7316;SDS011;3699;51.462;6.696;2023-12-20T09:14:45;17.23;;;5.50;;
7316;SDS011;3699;51.462;6.696;2023-12-20T09:17:12;28.37;;;6.67;;
7316;SDS011;3699;51.462;6.696;2023-12-20T09:19:39;15.87;;;5.30;;
7316;SDS011;3699;51.462;6.696;2023-12-20T09:22:06;22.20;;;5.60;;
7316;SDS011;3699;51.462;6.696;2023-12-20T09:24:33;18.63;;;5.93;;
7316;SDS011;3699;51.462;6.696;2023-12-20T09:27:00;11.77;;;5.70;;
7316;SDS011;3699;51.462;6.696;2023-12-20T09:29:27;18.73;;;6.13;;
7316;SDS011;3699;51.462;6.696;2023-12-20T09:31:55;17.93;;;5.80;;
7316;SDS011;3699;51.462;6.696;2023-12-20T09:34:22;15.83;;;4.97;;
7316;SDS011;3699;51.462;6.696;2023-12-20T09:36:50;14.57;;;5.87;;
7316;SDS011;3699;51.462;6.696;2023-12-20T09:39:18;18.50;;;6.77;;
7316;SDS011;3699;51.462;6.696;2023-12-20T09:41:46;15.90;;;5.20;;
7316;SDS011;3699;51.462;6.696;2023-12-20T09:44:25;13.40;;;4.53;;
7316;SDS011;3699;51.462;6.696;2023-12-20T09:46:52;14.40;;;5.77;;
7316;SDS011;3699;51.462;6.696;2023-12-20T09:49:21;14.67;;;5.20;;
7316;SDS011;3699;51.462;6.696;2023-12-20T09:51:49;17.93;;;6.70;;
7316;SDS011;3699;51.462;6.696;2023-12-20T09:54:17;17.70;;;5.10;;
7316;SDS011;3699;51.462;6.696;2023-12-20T09:56:44;14.20;;;5.03;;
7316;SDS011;3699;51.462;6.696;2023-12-20T09:59:11;20.53;;;6.40;;
7316;SDS011;3699;51.462;6.696;2023-12-20T10:01:39;18.07;;;4.70;;
7316;SDS011;3699;51.462;6.696;2023-12-20T10:04:06;17.70;;;4.70;;
7316;SDS011;3699;51.462;6.696;2023-12-20T10:06:38;18.67;;;5.40;;
7316;SDS011;3699;51.462;6.696;2023-12-20T10:09:05;14.47;;;5.00;;
7316;SDS011;3699;51.462;6.696;2023-12-20T10:11:34;19.63;;;5.40;;
7316;SDS011;3699;51.462;6.696;2023-12-20T10:14:02;25.23;;;7.23;;
7316;SDS011;3699;51.462;6.696;2023-12-20T10:16:29;16.17;;;6.30;;
7316;SDS011;3699;51.462;6.696;2023-12-20T10:18:57;15.27;;;5.43;;
7316;SDS011;3699;51.462;6.696;2023-12-20T10:21:24;16.07;;;5.60;;
7316;SDS011;3699;51.462;6.696;2023-12-20T10:23:54;16.87;;;5.70;;
7316;SDS011;3699;51.462;6.696;2023-12-20T10:26:21;16.37;;;5.70;;
7316;SDS011;3699;51.462;6.696;2023-12-20T10:28:50;13.83;;;5.63;;
7316;SDS011;3699;51.462;6.696;2023-12-20T10:31:27;16.03;;;6.07;;
7316;SDS011;3699;51.462;6.696;2023-12-20T10:33:56;18.03;;;5.40;;
7316;SDS011;3699;51.462;6.696;2023-12-20T10:36:24;17.03;;;5.20;;
7316;SDS011;3699;51.462;6.696;2023-12-20T10:38:52;21.10;;;6.03;;
7316;SDS011;3699;51.462;6.696;2023-12-20T10:41:24;23.57;;;5.93;;
7316;SDS011;3699;51.462;6.696;2023-12-20T10:43:52;15.53;;;5.70;;
7316;SDS011;3699;51.462;6.696;2023-12-20T10:46:21;19.97;;;6.63;;
7316;SDS011;3699;51.462;6.696;2023-12-20T10:48:48;14.00;;;6.23;;
7316;SDS011;3699;51.462;6.696;2023-12-20T10:51:19;14.50;;;5.30;;
7316;SDS011;3699;51.462;6.696;2023-12-20T10:53:47;16.93;;;5.90;;
7316;SDS011;3699;51.462;6.696;2023-12-20T10:56:16;18.77;;;6.03;;
7316;SDS011;3699;51.462;6.696;2023-12-20T10:58:44;19.83;;;6.67;;
7316;SDS011;3699;51.462;6.696;2023-12-20T11:01:12;21.07;;;5.40;;
7316;SDS011;3699;51.462;6.696;2023-12-20T11:03:41;13.73;;;5.40;;
7316;SDS011;3699;51.462;6.696;2023-12-20T11:06:13;14.53;;;5.53;;
7316;SDS011;3699;51.462;6.696;2023-12-20T11:08:50;16.80;;;5.93;;
7316;SDS011;3699;51.462;6.696;2023-12-20T11:11:23;22.33;;;6.43;;
7316;SDS011;3699;51.462;6.696;2023-12-20T11:13:58;21.27;;;7.13;;
7316;SDS011;3699;51.462;6.696;2023-12-20T11:16:27;14.17;;;5.63;;
7316;SDS011;3699;51.462;6.696;2023-12-20T11:18:54;18.13;;;6.10;;
7316;SDS011;3699;51.462;6.696;2023-12-20T11:21:20;20.50;;;8.10;;
7316;SDS011;3699;51.462;6.696;2023-12-20T11:23:47;15.00;;;6.27;;
7316;SDS011;3699;51.462;6.696;2023-12-20T11:26:15;19.50;;;6.67;;
7316;SDS011;3699;51.462;6.696;2023-12-20T11:28:44;15.40;;;6.00;;
7316;SDS011;3699;51.462;6.696;2023-12-20T11:31:12;17.27;;;5.90;;
7316;SDS011;3699;51.462;6.696;2023-12-20T11:33:42;19.50;;;5.57;;
7316;SDS011;3699;51.462;6.696;2023-12-20T11:36:12;12.30;;;6.20;;
7316;SDS011;3699;51.462;6.696;2023-12-20T11:38:49;21.67;;;7.87;;
7316;SDS011;3699;51.462;6.696;2023-12-20T11:41:22;19.07;;;7.60;;
7316;SDS011;3699;51.462;6.696;2023-12-20T11:43:51;19.70;;;6.53;;
7316;SDS011;3699;51.462;6.696;2023-12-20T11:46:19;22.60;;;6.13;;
7316;SDS011;3699;51.462;6.696;2023-12-20T11:48:47;16.70;;;6.70;;
7316;SDS011;3699;51.462;6.696;2023-12-20T11:51:14;17.00;;;5.60;;
7316;SDS011;3699;51.462;6.696;2023-12-20T11:53:41;18.27;;;6.50;;
7316;SDS011;3699;51.462;6.696;2023-12-20T11:56:08;12.37;;;6.33;;
7316;SDS011;3699;51.462;6.696;2023-12-20T11:58:35;16.33;;;6.60;;
7316;SDS011;3699;51.462;6.696;2023-12-20T12:01:04;14.87;;;6.70;;
7316;SDS011;3699;51.462;6.696;2023-12-20T12:03:32;18.47;;;6.87;;
7316;SDS011;3699;51.462;6.696;2023-12-20T12:05:59;18.07;;;6.97;;
7316;SDS011;3699;51.462;6.696;2023-12-20T12:08:27;21.13;;;6.30;;
7316;SDS011;3699;51.462;6.696;2023-12-20T12:10:54;14.47;;;6.43;;
7316;SDS011;3699;51.462;6.696;2023-12-20T12:13:20;19.57;;;7.40;;
7316;SDS011;3699;51.462;6.696;2023-12-20T12:15:47;14.63;;;6.37;;
7316;SDS011;3699;51.462;6.696;2023-12-20T12:18:16;15.40;;;6.33;;
7316;SDS011;3699;51.462;6.696;2023-12-20T12:20:43;15.70;;;7.00;;
7316;SDS011;3699;51.462;6.696;2023-12-20T12:23:10;19.70;;;6.10;;
7316;SDS011;3699;51.462;6.696;2023-12-20T12:25:37;15.27;;;6.00;;
7316;SDS011;3699;51.462;6.696;2023-12-20T12:28:04;14.03;;;5.60;;
7316;SDS011;3699;51.462;6.696;2023-12-20T12:30:32;27.37;;;7.53;;
7316;SDS011;3699;51.462;6.696;2023-12-20T12:32:58;16.20;;;6.43;;
7316;SDS011;3699;51.462;6.696;2023-12-20T12:35:27;14.13;;;4.93;;
7316;SDS011;3699;51.462;6.696;2023-12-20T12:37:53;9.67;;;4.90;;
7316;SDS011;3699;51.462;6.696;2023-12-20T12:40:20;14.10;;;5.63;;
7316;SDS011;3699;51.462;6.696;2023-12-20T12:42:47;13.27;;;5.13;;
7316;SDS011;3699;51.462;6.696;2023-12-20T12:45:14;22.37;;;6.57;;
7316;SDS011;3699;51.462;6.696;2023-12-20T12:47:40;11.83;;;5.33;;
7316;SDS011;3699;51.462;6.696;2023-12-20T12:50:08;15.60;;;7.27;;
7316;SDS011;3699;51.462;6.696;2023-12-20T12:52:36;18.20;;;6.63;;
7316;SDS011;3699;51.462;6.696;2023-12-20T12:55:03;13.43;;;5.30;;
7316;SDS011;3699;51.462;6.696;2023-12-20T12:57:31;11.57;;;5.63;;
7316;SDS011;3699;51.462;6.696;2023-12-20T12:59:58;24.30;;;6.93;;
7316;SDS011;3699;51.462;6.696;2023-12-20T13:02:25;12.83;;;5.63;;
7316;SDS011;3699;51.462;6.696;2023-12-20T13:04:52;18.57;;;6.50;;
7316;SDS011;3699;51.462;6.696;2023-12-20T13:07:18;15.60;;;6.50;;
7316;SDS011;3699;51.462;6.696;2023-12-20T13:09:46;14.77;;;6.43;;
7316;SDS011;3699;51.462;6.696;2023-12-20T13:12:13;12.23;;;6.10;;
7316;SDS011;3699;51.462;6.696;2023-12-20T13:14:40;17.57;;;6.57;;
7316;SDS011;3699;51.462;6.696;2023-12-20T13:17:07;17.63;;;6.50;;
7316;SDS011;3699;51.462;6.696;2023-12-20T13:19:33;22.33;;;7.03;;
7316;SDS011;3699;51.462;6.696;2023-12-20T13:22:00;14.87;;;6.57;;
7316;SDS011;3699;51.462;6.696;2023-12-20T13:24:27;10.20;;;8.20;;
7316;SDS011;3699;51.462;6.696;2023-12-20T13:26:55;24.60;;;7.83;;
7316;SDS011;3699;51.462;6.696;2023-12-20T13:29:22;15.23;;;7.20;;
7316;SDS011;3699;51.462;6.696;2023-12-20T13:31:52;15.03;;;7.60;;
7316;SDS011;3699;51.462;6.696;2023-12-20T13:34:18;20.30;;;7.83;;
7316;SDS011;3699;51.462;6.696;2023-12-20T13:36:46;25.27;;;8.20;;
7316;SDS011;3699;51.462;6.696;2023-12-20T13:39:15;23.67;;;8.20;;
7316;SDS011;3699;51.462;6.696;2023-12-20T13:41:43;17.80;;;7.73;;
7316;SDS011;3699;51.462;6.696;2023-12-20T13:44:11;29.77;;;7.93;;
7316;SDS011;3699;51.462;6.696;2023-12-20T13:46:38;21.27;;;8.13;;
7316;SDS011;3699;51.462;6.696;2023-12-20T13:49:06;14.67;;;7.70;;
7316;SDS011;3699;51.462;6.696;2023-12-20T13:51:32;22.33;;;8.20;;
7316;SDS011;3699;51.462;6.696;2023-12-20T13:53:59;23.40;;;7.70;;
7316;SDS011;3699;51.462;6.696;2023-12-20T13:56:26;19.83;;;8.20;;
7316;SDS011;3699;51.462;6.696;2023-12-20T13:58:53;16.37;;;8.53;;
7316;SDS011;3699;51.462;6.696;2023-12-20T14:01:21;18.50;;;7.63;;
7316;SDS011;3699;51.462;6.696;2023-12-20T14:03:49;17.27;;;7.90;;
7316;SDS011;3699;51.462;6.696;2023-12-20T14:06:16;18.30;;;7.97;;
7316;SDS011;3699;51.462;6.696;2023-12-20T14:08:43;23.40;;;8.87;;
7316;SDS011;3699;51.462;6.696;2023-12-20T14:11:09;17.90;;;8.17;;
7316;SDS011;3699;51.462;6.696;2023-12-20T14:13:37;14.63;;;8.23;;
7316;SDS011;3699;51.462;6.696;2023-12-20T14:16:04;19.67;;;7.63;;
7316;SDS011;3699;51.462;6.696;2023-12-20T14:18:32;18.97;;;10.13;;
7316;SDS011;3699;51.462;6.696;2023-12-20T14:20:59;19.90;;;7.90;;
7316;SDS011;3699;51.462;6.696;2023-12-20T14:23:26;21.63;;;9.27;;
7316;SDS011;3699;51.462;6.696;2023-12-20T14:25:52;23.87;;;9.17;;
7316;SDS011;3699;51.462;6.696;2023-12-20T14:28:20;20.00;;;8.83;;
7316;SDS011;3699;51.462;6.696;2023-12-20T14:30:47;19.20;;;8.43;;
7316;SDS011;3699;51.462;6.696;2023-12-20T14:33:14;26.60;;;9.93;;
7316;SDS011;3699;51.462;6.696;2023-12-20T14:35:42;21.90;;;8.73;;
7316;SDS011;3699;51.462;6.696;2023-12-20T14:38:09;18.47;;;9.50;;
7316;SDS011;3699;51.462;6.696;2023-12-20T14:40:38;22.77;;;8.57;;
7316;SDS011;3699;51.462;6.696;2023-12-20T14:43:05;14.90;;;7.77;;
7316;SDS011;3699;51.462;6.696;2023-12-20T14:45:32;17.10;;;8.70;;
7316;SDS011;3699;51.462;6.696;2023-12-20T14:47:59;21.20;;;8.10;;
7316;SDS011;3699;51.462;6.696;2023-12-20T14:50:25;23.80;;;9.50;;
7316;SDS011;3699;51.462;6.696;2023-12-20T14:52:53;20.60;;;7.97;;
7316;SDS011;3699;51.462;6.696;2023-12-20T14:55:21;20.00;;;8.13;;
7316;SDS011;3699;51.462;6.696;2023-12-20T14:57:47;20.07;;;8.30;;
7316;SDS011;3699;51.462;6.696;2023-12-20T15:00:15;18.80;;;7.90;;